sensor_id;sensor_type;location;lat;lon;timestamp;P1;durP1;ratioP1;P2;durP2;ratioP2
48835;SDS011;62581;47.342;7.908;2023-09-19T00:01:43;4.05;;;2.10;;
48835;SDS011;62581;47.342;7.908;2023-09-19T00:04:12;5.95;;;2.22;;
48835;SDS011;62581;47.342;7.908;2023-09-19T00:06:39;4.35;;;2.20;;
48835;SDS011;62581;47.342;7.908;2023-09-19T00:09:07;3.97;;;2.20;;
48835;SDS011;62581;47.342;7.908;2023-09-19T00:11:35;1.95;;;1.75;;
48835;SDS011;62581;47.342;7.908;2023-09-19T00:14:03;2.58;;;1.50;;
48835;SDS011;62581;47.342;7.908;2023-09-19T00:16:33;3.17;;;1.60;;
48835;SDS011;62581;47.342;7.908;2023-09-19T00:19:01;1.88;;;1.55;;
48835;SDS011;62581;47.342;7.908;2023-09-19T00:21:32;5.72;;;2.22;;
48835;SDS011;62581;47.342;7.908;2023-09-19T00:23:59;3.63;;;1.90;;
48835;SDS011;62581;47.342;7.908;2023-09-19T00:26:26;4.35;;;1.92;;
48835;SDS011;62581;47.342;7.908;2023-09-19T00:28:55;2.72;;;1.85;;
48835;SDS011;62581;47.342;7.908;2023-09-19T00:31:22;5.38;;;2.08;;
48835;SDS011;62581;47.342;7.908;2023-09-19T00:33:50;4.15;;;2.17;;
48835;SDS011;62581;47.342;7.908;2023-09-19T00:36:18;3.80;;;2.13;;
48835;SDS011;62581;47.342;7.908;2023-09-19T00:38:46;5.93;;;2.08;;
48835;SDS011;62581;47.342;7.908;2023-09-19T00:41:13;4.07;;;1.92;;
48835;SDS011;62581;47.342;7.908;2023-09-19T00:43:40;2.50;;;1.60;;
48835;SDS011;62581;47.342;7.908;2023-09-19T00:46:07;3.88;;;2.55;;
48835;SDS011;62581;47.342;7.908;2023-09-19T00:48:36;4.32;;;2.03;;
48835;SDS011;62581;47.342;7.908;2023-09-19T00:51:08;4.93;;;2.05;;
48835;SDS011;62581;47.342;7.908;2023-09-19T00:53:36;6.78;;;2.10;;
48835;SDS011;62581;47.342;7.908;2023-09-19T00:58:33;4.43;;;2.50;;
48835;SDS011;62581;47.342;7.908;2023-09-19T01:01:01;6.07;;;2.03;;
48835;SDS011;62581;47.342;7.908;2023-09-19T01:03:31;5.63;;;2.08;;
48835;SDS011;62581;47.342;7.908;2023-09-19T01:05:59;4.70;;;1.95;;
48835;SDS011;62581;47.342;7.908;2023-09-19T01:08:27;10.27;;;2.10;;
48835;SDS011;62581;47.342;7.908;2023-09-19T01:10:59;3.05;;;1.75;;
48835;SDS011;62581;47.342;7.908;2023-09-19T01:13:41;4.40;;;2.00;;
48835;SDS011;62581;47.342;7.908;2023-09-19T01:16:18;2.85;;;1.90;;
48835;SDS011;62581;47.342;7.908;2023-09-19T01:19:02;6.70;;;2.75;;
48835;SDS011;62581;47.342;7.908;2023-09-19T01:21:57;2.88;;;1.63;;
48835;SDS011;62581;47.342;7.908;2023-09-19T01:27:44;2.95;;;1.92;;
48835;SDS011;62581;47.342;7.908;2023-09-19T01:30:39;3.60;;;2.10;;
48835;SDS011;62581;47.342;7.908;2023-09-19T01:33:09;3.58;;;2.05;;
48835;SDS011;62581;47.342;7.908;2023-09-19T01:35:37;3.05;;;1.90;;
48835;SDS011;62581;47.342;7.908;2023-09-19T01:38:05;3.30;;;1.70;;
48835;SDS011;62581;47.342;7.908;2023-09-19T01:40:35;2.00;;;1.73;;
48835;SDS011;62581;47.342;7.908;2023-09-19T01:43:08;6.28;;;2.10;;
48835;SDS011;62581;47.342;7.908;2023-09-19T01:45:43;3.97;;;2.00;;
48835;SDS011;62581;47.342;7.908;2023-09-19T01:48:24;3.22;;;1.92;;
48835;SDS011;62581;47.342;7.908;2023-09-19T01:50:59;7.88;;;2.03;;
48835;SDS011;62581;47.342;7.908;2023-09-19T01:53:28;4.53;;;2.45;;
48835;SDS011;62581;47.342;7.908;2023-09-19T01:56:02;3.63;;;2.40;;
48835;SDS011;62581;47.342;7.908;2023-09-19T01:58:38;2.58;;;1.63;;
48835;SDS011;62581;47.342;7.908;2023-09-19T02:01:10;4.53;;;2.10;;
48835;SDS011;62581;47.342;7.908;2023-09-19T02:03:41;3.33;;;1.58;;
48835;SDS011;62581;47.342;7.908;2023-09-19T02:06:13;3.42;;;1.80;;
48835;SDS011;62581;47.342;7.908;2023-09-19T02:08:40;2.33;;;1.50;;
48835;SDS011;62581;47.342;7.908;2023-09-19T02:11:08;7.68;;;2.08;;
48835;SDS011;62581;47.342;7.908;2023-09-19T02:13:35;3.27;;;1.60;;
48835;SDS011;62581;47.342;7.908;2023-09-19T02:16:02;5.82;;;1.60;;
48835;SDS011;62581;47.342;7.908;2023-09-19T02:18:33;2.45;;;1.73;;
48835;SDS011;62581;47.342;7.908;2023-09-19T02:21:00;3.22;;;1.80;;
48835;SDS011;62581;47.342;7.908;2023-09-19T02:23:29;2.08;;;1.48;;
48835;SDS011;62581;47.342;7.908;2023-09-19T02:25:56;3.20;;;1.48;;
48835;SDS011;62581;47.342;7.908;2023-09-19T02:28:25;2.53;;;1.35;;
48835;SDS011;62581;47.342;7.908;2023-09-19T02:30:55;3.97;;;1.85;;
48835;SDS011;62581;47.342;7.908;2023-09-19T02:33:22;3.65;;;1.42;;
48835;SDS011;62581;47.342;7.908;2023-09-19T02:35:53;3.25;;;1.20;;
48835;SDS011;62581;47.342;7.908;2023-09-19T02:38:22;3.67;;;1.38;;
48835;SDS011;62581;47.342;7.908;2023-09-19T02:40:50;2.90;;;1.52;;
48835;SDS011;62581;47.342;7.908;2023-09-19T02:43:17;4.18;;;1.35;;
48835;SDS011;62581;47.342;7.908;2023-09-19T02:45:44;3.30;;;1.23;;
48835;SDS011;62581;47.342;7.908;2023-09-19T02:48:14;3.95;;;1.38;;
48835;SDS011;62581;47.342;7.908;2023-09-19T02:50:42;4.35;;;1.25;;
48835;SDS011;62581;47.342;7.908;2023-09-19T02:53:11;4.00;;;1.10;;
48835;SDS011;62581;47.342;7.908;2023-09-19T02:55:39;2.22;;;1.33;;
48835;SDS011;62581;47.342;7.908;2023-09-19T02:58:06;2.85;;;1.23;;
48835;SDS011;62581;47.342;7.908;2023-09-19T03:00:36;2.45;;;1.00;;
48835;SDS011;62581;47.342;7.908;2023-09-19T03:03:04;5.15;;;1.10;;
48835;SDS011;62581;47.342;7.908;2023-09-19T03:05:33;3.83;;;0.98;;
48835;SDS011;62581;47.342;7.908;2023-09-19T03:08:00;4.00;;;1.20;;
48835;SDS011;62581;47.342;7.908;2023-09-19T03:10:29;2.17;;;0.98;;
48835;SDS011;62581;47.342;7.908;2023-09-19T03:12:56;1.98;;;1.08;;
48835;SDS011;62581;47.342;7.908;2023-09-19T03:15:25;1.48;;;0.93;;
48835;SDS011;62581;47.342;7.908;2023-09-19T03:17:52;2.47;;;0.90;;
48835;SDS011;62581;47.342;7.908;2023-09-19T03:20:19;3.58;;;1.17;;
48835;SDS011;62581;47.342;7.908;2023-09-19T03:22:46;4.70;;;1.10;;
48835;SDS011;62581;47.342;7.908;2023-09-19T03:25:14;2.33;;;1.13;;
48835;SDS011;62581;47.342;7.908;2023-09-19T03:27:43;3.03;;;1.10;;
48835;SDS011;62581;47.342;7.908;2023-09-19T03:32:43;3.03;;;1.30;;
48835;SDS011;62581;47.342;7.908;2023-09-19T03:35:12;2.92;;;1.00;;
48835;SDS011;62581;47.342;7.908;2023-09-19T03:37:39;3.63;;;1.10;;
48835;SDS011;62581;47.342;7.908;2023-09-19T03:40:07;2.33;;;1.10;;
48835;SDS011;62581;47.342;7.908;2023-09-19T03:42:37;3.60;;;1.50;;
48835;SDS011;62581;47.342;7.908;2023-09-19T03:45:06;1.52;;;1.00;;
48835;SDS011;62581;47.342;7.908;2023-09-19T03:47:37;2.53;;;1.17;;
48835;SDS011;62581;47.342;7.908;2023-09-19T03:50:05;1.75;;;1.02;;
48835;SDS011;62581;47.342;7.908;2023-09-19T03:52:33;1.40;;;1.02;;
48835;SDS011;62581;47.342;7.908;2023-09-19T03:55:00;2.00;;;1.30;;
48835;SDS011;62581;47.342;7.908;2023-09-19T03:57:29;1.60;;;1.27;;
48835;SDS011;62581;47.342;7.908;2023-09-19T03:59:56;3.42;;;1.20;;
48835;SDS011;62581;47.342;7.908;2023-09-19T04:02:25;3.08;;;0.98;;
48835;SDS011;62581;47.342;7.908;2023-09-19T04:04:58;2.42;;;1.48;;
48835;SDS011;62581;47.342;7.908;2023-09-19T04:07:25;6.05;;;1.52;;
48835;SDS011;62581;47.342;7.908;2023-09-19T04:09:54;2.72;;;1.30;;
48835;SDS011;62581;47.342;7.908;2023-09-19T04:12:21;2.80;;;1.48;;
48835;SDS011;62581;47.342;7.908;2023-09-19T04:14:48;2.13;;;1.15;;
48835;SDS011;62581;47.342;7.908;2023-09-19T04:17:15;1.38;;;1.20;;
48835;SDS011;62581;47.342;7.908;2023-09-19T04:19:45;1.00;;;0.90;;
48835;SDS011;62581;47.342;7.908;2023-09-19T04:22:12;2.95;;;1.20;;
48835;SDS011;62581;47.342;7.908;2023-09-19T04:24:39;1.83;;;1.05;;
48835;SDS011;62581;47.342;7.908;2023-09-19T04:27:06;2.22;;;1.25;;
48835;SDS011;62581;47.342;7.908;2023-09-19T04:29:33;2.83;;;0.90;;
48835;SDS011;62581;47.342;7.908;2023-09-19T04:32:00;3.72;;;1.33;;
48835;SDS011;62581;47.342;7.908;2023-09-19T04:34:29;1.67;;;1.17;;
48835;SDS011;62581;47.342;7.908;2023-09-19T04:36:58;2.75;;;1.30;;
48835;SDS011;62581;47.342;7.908;2023-09-19T04:39:25;1.73;;;0.90;;
48835;SDS011;62581;47.342;7.908;2023-09-19T04:41:53;2.53;;;1.40;;
48835;SDS011;62581;47.342;7.908;2023-09-19T04:44:20;2.20;;;1.30;;
48835;SDS011;62581;47.342;7.908;2023-09-19T04:46:47;1.80;;;1.40;;
48835;SDS011;62581;47.342;7.908;2023-09-19T04:49:14;2.22;;;1.30;;
48835;SDS011;62581;47.342;7.908;2023-09-19T04:51:42;4.60;;;1.65;;
48835;SDS011;62581;47.342;7.908;2023-09-19T04:54:13;4.47;;;1.10;;
48835;SDS011;62581;47.342;7.908;2023-09-19T04:56:40;2.85;;;1.17;;
48835;SDS011;62581;47.342;7.908;2023-09-19T04:59:07;2.08;;;1.33;;
48835;SDS011;62581;47.342;7.908;2023-09-19T05:01:36;2.60;;;1.20;;
48835;SDS011;62581;47.342;7.908;2023-09-19T05:04:03;6.30;;;1.60;;
48835;SDS011;62581;47.342;7.908;2023-09-19T05:06:30;3.65;;;1.40;;
48835;SDS011;62581;47.342;7.908;2023-09-19T05:09:00;1.83;;;1.30;;
48835;SDS011;62581;47.342;7.908;2023-09-19T05:11:31;2.60;;;1.55;;
48835;SDS011;62581;47.342;7.908;2023-09-19T05:13:59;1.63;;;1.08;;
48835;SDS011;62581;47.342;7.908;2023-09-19T05:16:28;3.35;;;1.55;;
48835;SDS011;62581;47.342;7.908;2023-09-19T05:18:56;3.13;;;1.20;;
48835;SDS011;62581;47.342;7.908;2023-09-19T05:21:25;4.15;;;1.67;;
48835;SDS011;62581;47.342;7.908;2023-09-19T05:23:54;2.40;;;1.50;;
48835;SDS011;62581;47.342;7.908;2023-09-19T05:26:21;3.70;;;1.70;;
48835;SDS011;62581;47.342;7.908;2023-09-19T05:28:49;2.28;;;1.33;;
48835;SDS011;62581;47.342;7.908;2023-09-19T05:31:18;1.90;;;1.58;;
48835;SDS011;62581;47.342;7.908;2023-09-19T05:33:45;2.88;;;1.70;;
48835;SDS011;62581;47.342;7.908;2023-09-19T05:36:12;4.57;;;2.08;;
48835;SDS011;62581;47.342;7.908;2023-09-19T05:38:41;5.40;;;1.80;;
48835;SDS011;62581;47.342;7.908;2023-09-19T05:41:09;4.05;;;1.83;;
48835;SDS011;62581;47.342;7.908;2023-09-19T05:43:38;2.63;;;1.73;;
48835;SDS011;62581;47.342;7.908;2023-09-19T05:46:07;4.75;;;2.08;;
48835;SDS011;62581;47.342;7.908;2023-09-19T05:48:34;3.40;;;1.65;;
48835;SDS011;62581;47.342;7.908;2023-09-19T05:51:01;3.42;;;2.17;;
48835;SDS011;62581;47.342;7.908;2023-09-19T05:53:28;3.15;;;1.42;;
48835;SDS011;62581;47.342;7.908;2023-09-19T05:55:55;4.93;;;1.80;;
48835;SDS011;62581;47.342;7.908;2023-09-19T05:58:22;1.80;;;1.65;;
48835;SDS011;62581;47.342;7.908;2023-09-19T06:00:49;2.70;;;1.80;;
48835;SDS011;62581;47.342;7.908;2023-09-19T06:03:18;3.15;;;2.08;;
48835;SDS011;62581;47.342;7.908;2023-09-19T06:05:45;3.47;;;2.17;;
48835;SDS011;62581;47.342;7.908;2023-09-19T06:08:14;2.17;;;1.98;;
48835;SDS011;62581;47.342;7.908;2023-09-19T06:10:41;2.45;;;1.80;;
48835;SDS011;62581;47.342;7.908;2023-09-19T06:13:08;5.25;;;1.70;;
48835;SDS011;62581;47.342;7.908;2023-09-19T06:15:36;2.22;;;1.25;;
48835;SDS011;62581;47.342;7.908;2023-09-19T06:18:03;4.00;;;1.45;;
48835;SDS011;62581;47.342;7.908;2023-09-19T06:20:32;3.35;;;1.77;;
48835;SDS011;62581;47.342;7.908;2023-09-19T06:22:59;1.95;;;1.30;;
48835;SDS011;62581;47.342;7.908;2023-09-19T06:25:27;1.55;;;1.20;;
48835;SDS011;62581;47.342;7.908;2023-09-19T06:27:54;3.08;;;1.52;;
48835;SDS011;62581;47.342;7.908;2023-09-19T06:30:21;4.10;;;1.40;;
48835;SDS011;62581;47.342;7.908;2023-09-19T06:32:49;5.05;;;1.80;;
48835;SDS011;62581;47.342;7.908;2023-09-19T06:35:21;3.63;;;1.73;;
48835;SDS011;62581;47.342;7.908;2023-09-19T06:37:50;5.35;;;1.60;;
48835;SDS011;62581;47.342;7.908;2023-09-19T06:42:45;4.95;;;1.45;;
48835;SDS011;62581;47.342;7.908;2023-09-19T06:45:16;2.70;;;1.30;;
48835;SDS011;62581;47.342;7.908;2023-09-19T06:47:43;2.38;;;1.20;;
48835;SDS011;62581;47.342;7.908;2023-09-19T06:50:11;2.70;;;1.30;;
48835;SDS011;62581;47.342;7.908;2023-09-19T06:52:39;2.75;;;1.30;;
48835;SDS011;62581;47.342;7.908;2023-09-19T06:55:08;5.57;;;1.20;;
48835;SDS011;62581;47.342;7.908;2023-09-19T06:57:38;1.40;;;1.05;;
48835;SDS011;62581;47.342;7.908;2023-09-19T07:00:06;1.60;;;1.10;;
48835;SDS011;62581;47.342;7.908;2023-09-19T07:02:40;3.15;;;1.48;;
48835;SDS011;62581;47.342;7.908;2023-09-19T07:05:07;2.35;;;1.27;;
48835;SDS011;62581;47.342;7.908;2023-09-19T07:07:34;2.72;;;1.45;;
48835;SDS011;62581;47.342;7.908;2023-09-19T07:10:02;3.33;;;1.40;;
48835;SDS011;62581;47.342;7.908;2023-09-19T07:12:32;2.50;;;1.20;;
48835;SDS011;62581;47.342;7.908;2023-09-19T07:14:59;3.08;;;1.83;;
48835;SDS011;62581;47.342;7.908;2023-09-19T07:17:26;4.38;;;1.60;;
48835;SDS011;62581;47.342;7.908;2023-09-19T07:19:54;2.83;;;1.42;;
48835;SDS011;62581;47.342;7.908;2023-09-19T07:22:23;3.17;;;1.67;;
48835;SDS011;62581;47.342;7.908;2023-09-19T07:24:49;4.82;;;1.60;;
48835;SDS011;62581;47.342;7.908;2023-09-19T07:27:17;2.35;;;1.52;;
48835;SDS011;62581;47.342;7.908;2023-09-19T07:29:45;1.70;;;1.25;;
48835;SDS011;62581;47.342;7.908;2023-09-19T07:32:12;4.68;;;1.80;;
48835;SDS011;62581;47.342;7.908;2023-09-19T07:34:39;1.90;;;1.33;;
48835;SDS011;62581;47.342;7.908;2023-09-19T07:37:06;5.53;;;1.65;;
48835;SDS011;62581;47.342;7.908;2023-09-19T07:39:33;2.17;;;1.10;;
48835;SDS011;62581;47.342;7.908;2023-09-19T07:42:00;2.47;;;1.17;;
48835;SDS011;62581;47.342;7.908;2023-09-19T07:44:27;2.88;;;1.30;;
48835;SDS011;62581;47.342;7.908;2023-09-19T07:46:55;2.72;;;1.30;;
48835;SDS011;62581;47.342;7.908;2023-09-19T07:49:22;3.40;;;1.20;;
48835;SDS011;62581;47.342;7.908;2023-09-19T07:51:49;3.25;;;1.00;;
48835;SDS011;62581;47.342;7.908;2023-09-19T07:56:44;4.00;;;1.13;;
48835;SDS011;62581;47.342;7.908;2023-09-19T07:59:11;3.28;;;1.33;;
48835;SDS011;62581;47.342;7.908;2023-09-19T08:01:38;2.05;;;1.20;;
48835;SDS011;62581;47.342;7.908;2023-09-19T08:04:07;2.78;;;1.27;;
48835;SDS011;62581;47.342;7.908;2023-09-19T08:09:03;3.20;;;1.13;;
48835;SDS011;62581;47.342;7.908;2023-09-19T08:11:33;3.63;;;1.20;;
48835;SDS011;62581;47.342;7.908;2023-09-19T08:14:00;1.80;;;1.40;;
48835;SDS011;62581;47.342;7.908;2023-09-19T08:16:26;5.38;;;1.10;;
48835;SDS011;62581;47.342;7.908;2023-09-19T08:18:54;1.95;;;1.08;;
48835;SDS011;62581;47.342;7.908;2023-09-19T08:21:22;2.25;;;1.33;;
48835;SDS011;62581;47.342;7.908;2023-09-19T08:23:51;3.30;;;1.10;;
48835;SDS011;62581;47.342;7.908;2023-09-19T08:26:18;2.38;;;1.13;;
48835;SDS011;62581;47.342;7.908;2023-09-19T08:28:46;1.80;;;1.10;;
48835;SDS011;62581;47.342;7.908;2023-09-19T08:31:16;2.60;;;1.40;;
48835;SDS011;62581;47.342;7.908;2023-09-19T08:33:43;3.22;;;0.90;;
48835;SDS011;62581;47.342;7.908;2023-09-19T08:36:14;4.72;;;1.05;;
48835;SDS011;62581;47.342;7.908;2023-09-19T08:38:42;2.20;;;1.00;;
48835;SDS011;62581;47.342;7.908;2023-09-19T08:41:09;1.27;;;0.80;;
48835;SDS011;62581;47.342;7.908;2023-09-19T08:43:36;4.10;;;1.00;;
48835;SDS011;62581;47.342;7.908;2023-09-19T08:46:10;1.30;;;0.60;;
48835;SDS011;62581;47.342;7.908;2023-09-19T08:48:43;3.08;;;0.90;;
48835;SDS011;62581;47.342;7.908;2023-09-19T08:51:16;2.65;;;0.82;;
48835;SDS011;62581;47.342;7.908;2023-09-19T08:53:50;2.83;;;0.70;;
48835;SDS011;62581;47.342;7.908;2023-09-19T08:56:18;4.35;;;0.82;;
48835;SDS011;62581;47.342;7.908;2023-09-19T08:58:48;3.33;;;0.90;;
48835;SDS011;62581;47.342;7.908;2023-09-19T09:01:18;2.17;;;0.90;;
48835;SDS011;62581;47.342;7.908;2023-09-19T09:03:50;1.45;;;0.90;;
48835;SDS011;62581;47.342;7.908;2023-09-19T09:06:17;2.15;;;1.00;;
48835;SDS011;62581;47.342;7.908;2023-09-19T09:11:14;1.90;;;0.98;;
48835;SDS011;62581;47.342;7.908;2023-09-19T09:13:42;2.03;;;0.90;;
48835;SDS011;62581;47.342;7.908;2023-09-19T09:16:10;2.60;;;0.98;;
48835;SDS011;62581;47.342;7.908;2023-09-19T09:18:37;2.72;;;0.75;;
48835;SDS011;62581;47.342;7.908;2023-09-19T09:21:05;1.73;;;0.80;;
48835;SDS011;62581;47.342;7.908;2023-09-19T09:23:32;0.88;;;0.80;;
48835;SDS011;62581;47.342;7.908;2023-09-19T09:25:59;2.40;;;0.93;;
48835;SDS011;62581;47.342;7.908;2023-09-19T09:28:30;1.90;;;0.90;;
48835;SDS011;62581;47.342;7.908;2023-09-19T09:30:58;3.53;;;0.73;;
48835;SDS011;62581;47.342;7.908;2023-09-19T09:33:28;2.15;;;0.80;;
48835;SDS011;62581;47.342;7.908;2023-09-19T09:35:56;2.05;;;1.00;;
48835;SDS011;62581;47.342;7.908;2023-09-19T09:38:26;2.95;;;1.02;;
48835;SDS011;62581;47.342;7.908;2023-09-19T09:40:57;1.83;;;1.00;;
48835;SDS011;62581;47.342;7.908;2023-09-19T09:43:32;1.55;;;1.02;;
48835;SDS011;62581;47.342;7.908;2023-09-19T09:46:11;1.33;;;1.20;;
48835;SDS011;62581;47.342;7.908;2023-09-19T09:48:57;2.42;;;0.93;;
48835;SDS011;62581;47.342;7.908;2023-09-19T09:51:44;3.63;;;1.33;;
48835;SDS011;62581;47.342;7.908;2023-09-19T09:54:14;2.17;;;1.10;;
48835;SDS011;62581;47.342;7.908;2023-09-19T09:56:51;2.55;;;1.02;;
48835;SDS011;62581;47.342;7.908;2023-09-19T09:59:21;2.47;;;1.02;;
48835;SDS011;62581;47.342;7.908;2023-09-19T10:01:49;1.65;;;1.00;;
48835;SDS011;62581;47.342;7.908;2023-09-19T10:04:26;3.15;;;1.00;;
48835;SDS011;62581;47.342;7.908;2023-09-19T10:06:56;2.65;;;1.13;;
48835;SDS011;62581;47.342;7.908;2023-09-19T10:09:30;1.65;;;0.82;;
48835;SDS011;62581;47.342;7.908;2023-09-19T10:12:03;1.17;;;0.80;;
48835;SDS011;62581;47.342;7.908;2023-09-19T10:14:35;2.47;;;0.90;;
48835;SDS011;62581;47.342;7.908;2023-09-19T10:17:05;2.03;;;1.00;;
48835;SDS011;62581;47.342;7.908;2023-09-19T10:19:36;2.72;;;0.90;;
48835;SDS011;62581;47.342;7.908;2023-09-19T10:22:06;1.48;;;0.80;;
48835;SDS011;62581;47.342;7.908;2023-09-19T10:24:35;1.60;;;0.80;;
48835;SDS011;62581;47.342;7.908;2023-09-19T10:27:03;3.03;;;1.00;;
48835;SDS011;62581;47.342;7.908;2023-09-19T10:29:35;1.10;;;0.85;;
48835;SDS011;62581;47.342;7.908;2023-09-19T10:32:05;3.22;;;1.45;;
48835;SDS011;62581;47.342;7.908;2023-09-19T10:34:34;2.65;;;0.90;;
48835;SDS011;62581;47.342;7.908;2023-09-19T10:37:02;1.95;;;0.98;;
48835;SDS011;62581;47.342;7.908;2023-09-19T10:39:34;2.50;;;0.95;;
48835;SDS011;62581;47.342;7.908;2023-09-19T10:42:03;1.38;;;0.90;;
48835;SDS011;62581;47.342;7.908;2023-09-19T10:44:36;3.10;;;1.17;;
48835;SDS011;62581;47.342;7.908;2023-09-19T10:47:07;3.63;;;0.98;;
48835;SDS011;62581;47.342;7.908;2023-09-19T10:49:34;2.35;;;1.00;;
48835;SDS011;62581;47.342;7.908;2023-09-19T10:52:02;2.55;;;0.90;;
48835;SDS011;62581;47.342;7.908;2023-09-19T10:54:37;3.75;;;1.13;;
48835;SDS011;62581;47.342;7.908;2023-09-19T10:57:10;3.40;;;1.02;;
48835;SDS011;62581;47.342;7.908;2023-09-19T10:59:48;2.78;;;1.38;;
48835;SDS011;62581;47.342;7.908;2023-09-19T11:05:59;3.20;;;1.00;;
48835;SDS011;62581;47.342;7.908;2023-09-19T11:11:45;1.52;;;0.95;;
48835;SDS011;62581;47.342;7.908;2023-09-19T11:20:20;1.45;;;1.15;;
48835;SDS011;62581;47.342;7.908;2023-09-19T11:25:49;1.00;;;0.90;;
48835;SDS011;62581;47.342;7.908;2023-09-19T11:28:31;4.40;;;0.90;;
48835;SDS011;62581;47.342;7.908;2023-09-19T11:40:36;3.60;;;1.17;;
48835;SDS011;62581;47.342;7.908;2023-09-19T11:46:04;3.28;;;1.00;;
48835;SDS011;62581;47.342;7.908;2023-09-19T11:48:40;1.77;;;1.00;;
48835;SDS011;62581;47.342;7.908;2023-09-19T11:51:11;3.28;;;1.25;;
48835;SDS011;62581;47.342;7.908;2023-09-19T11:53:47;1.25;;;0.90;;
48835;SDS011;62581;47.342;7.908;2023-09-19T11:56:15;2.05;;;0.90;;
48835;SDS011;62581;47.342;7.908;2023-09-19T11:58:44;3.13;;;1.00;;
48835;SDS011;62581;47.342;7.908;2023-09-19T12:01:12;2.70;;;1.45;;
48835;SDS011;62581;47.342;7.908;2023-09-19T12:03:46;3.28;;;1.35;;
48835;SDS011;62581;47.342;7.908;2023-09-19T12:06:16;1.83;;;1.00;;
48835;SDS011;62581;47.342;7.908;2023-09-19T12:11:12;1.35;;;0.90;;
48835;SDS011;62581;47.342;7.908;2023-09-19T12:13:41;1.65;;;0.93;;
48835;SDS011;62581;47.342;7.908;2023-09-19T12:16:11;2.80;;;1.50;;
48835;SDS011;62581;47.342;7.908;2023-09-19T12:18:42;2.15;;;0.98;;
48835;SDS011;62581;47.342;7.908;2023-09-19T12:21:22;2.13;;;1.27;;
48835;SDS011;62581;47.342;7.908;2023-09-19T12:23:58;2.08;;;1.20;;
48835;SDS011;62581;47.342;7.908;2023-09-19T12:26:40;4.22;;;0.90;;
48835;SDS011;62581;47.342;7.908;2023-09-19T12:29:15;0.98;;;0.77;;
48835;SDS011;62581;47.342;7.908;2023-09-19T12:31:47;1.85;;;1.00;;
48835;SDS011;62581;47.342;7.908;2023-09-19T12:34:20;1.42;;;0.90;;
48835;SDS011;62581;47.342;7.908;2023-09-19T12:37:01;3.42;;;1.20;;
48835;SDS011;62581;47.342;7.908;2023-09-19T12:39:31;1.98;;;0.85;;
48835;SDS011;62581;47.342;7.908;2023-09-19T12:41:58;2.45;;;1.17;;
48835;SDS011;62581;47.342;7.908;2023-09-19T12:44:29;1.65;;;1.02;;
48835;SDS011;62581;47.342;7.908;2023-09-19T12:46:56;2.43;;;1.00;;
48835;SDS011;62581;47.342;7.908;2023-09-19T12:49:24;2.17;;;1.20;;
48835;SDS011;62581;47.342;7.908;2023-09-19T12:51:55;4.85;;;1.17;;
48835;SDS011;62581;47.342;7.908;2023-09-19T12:54:24;1.30;;;0.93;;
48835;SDS011;62581;47.342;7.908;2023-09-19T12:56:51;2.43;;;1.30;;
48835;SDS011;62581;47.342;7.908;2023-09-19T12:59:19;1.25;;;0.80;;
48835;SDS011;62581;47.342;7.908;2023-09-19T13:02:03;2.38;;;1.20;;
48835;SDS011;62581;47.342;7.908;2023-09-19T13:04:32;6.03;;;1.30;;
48835;SDS011;62581;47.342;7.908;2023-09-19T13:07:06;3.55;;;1.08;;
48835;SDS011;62581;47.342;7.908;2023-09-19T13:09:35;2.70;;;1.05;;
48835;SDS011;62581;47.342;7.908;2023-09-19T13:12:04;1.13;;;1.00;;
48835;SDS011;62581;47.342;7.908;2023-09-19T13:15:06;1.88;;;1.00;;
48835;SDS011;62581;47.342;7.908;2023-09-19T13:17:46;1.00;;;0.77;;
48835;SDS011;62581;47.342;7.908;2023-09-19T13:22:53;1.58;;;1.00;;
48835;SDS011;62581;47.342;7.908;2023-09-19T13:25:23;0.95;;;0.70;;
48835;SDS011;62581;47.342;7.908;2023-09-19T13:27:52;3.38;;;0.70;;
48835;SDS011;62581;47.342;7.908;2023-09-19T13:30:21;2.08;;;1.13;;
48835;SDS011;62581;47.342;7.908;2023-09-19T13:32:50;2.17;;;1.00;;
48835;SDS011;62581;47.342;7.908;2023-09-19T13:35:18;2.00;;;1.00;;
48835;SDS011;62581;47.342;7.908;2023-09-19T13:37:46;2.70;;;0.90;;
48835;SDS011;62581;47.342;7.908;2023-09-19T13:40:15;1.00;;;0.70;;
48835;SDS011;62581;47.342;7.908;2023-09-19T13:42:43;3.25;;;0.77;;
48835;SDS011;62581;47.342;7.908;2023-09-19T13:45:10;3.00;;;1.08;;
48835;SDS011;62581;47.342;7.908;2023-09-19T13:47:40;2.22;;;0.98;;
48835;SDS011;62581;47.342;7.908;2023-09-19T13:50:08;1.40;;;0.73;;
48835;SDS011;62581;47.342;7.908;2023-09-19T13:52:35;1.17;;;0.68;;
48835;SDS011;62581;47.342;7.908;2023-09-19T13:55:03;1.30;;;0.60;;
48835;SDS011;62581;47.342;7.908;2023-09-19T13:57:33;1.45;;;0.93;;
48835;SDS011;62581;47.342;7.908;2023-09-19T14:00:00;2.35;;;0.75;;
48835;SDS011;62581;47.342;7.908;2023-09-19T14:02:29;2.80;;;1.02;;
48835;SDS011;62581;47.342;7.908;2023-09-19T14:04:57;3.08;;;1.00;;
48835;SDS011;62581;47.342;7.908;2023-09-19T14:07:24;2.22;;;1.02;;
48835;SDS011;62581;47.342;7.908;2023-09-19T14:09:51;1.17;;;1.00;;
48835;SDS011;62581;47.342;7.908;2023-09-19T14:12:19;2.60;;;1.20;;
48835;SDS011;62581;47.342;7.908;2023-09-19T14:14:47;1.27;;;0.90;;
48835;SDS011;62581;47.342;7.908;2023-09-19T14:17:16;1.95;;;0.88;;
48835;SDS011;62581;47.342;7.908;2023-09-19T14:19:43;2.33;;;0.90;;
48835;SDS011;62581;47.342;7.908;2023-09-19T14:22:10;1.50;;;0.90;;
48835;SDS011;62581;47.342;7.908;2023-09-19T14:24:39;1.40;;;1.10;;
48835;SDS011;62581;47.342;7.908;2023-09-19T14:27:06;1.45;;;0.73;;
48835;SDS011;62581;47.342;7.908;2023-09-19T14:29:34;3.22;;;0.88;;
48835;SDS011;62581;47.342;7.908;2023-09-19T14:32:03;2.88;;;0.85;;
48835;SDS011;62581;47.342;7.908;2023-09-19T14:34:30;2.55;;;0.90;;
48835;SDS011;62581;47.342;7.908;2023-09-19T14:36:58;1.80;;;0.88;;
48835;SDS011;62581;47.342;7.908;2023-09-19T14:39:25;4.80;;;1.10;;
48835;SDS011;62581;47.342;7.908;2023-09-19T14:41:52;1.42;;;0.80;;
48835;SDS011;62581;47.342;7.908;2023-09-19T14:44:19;2.05;;;0.82;;
48835;SDS011;62581;47.342;7.908;2023-09-19T14:46:47;1.27;;;0.88;;
48835;SDS011;62581;47.342;7.908;2023-09-19T14:49:15;3.55;;;0.77;;
48835;SDS011;62581;47.342;7.908;2023-09-19T14:51:42;1.75;;;0.70;;
48835;SDS011;62581;47.342;7.908;2023-09-19T14:54:10;1.45;;;0.65;;
48835;SDS011;62581;47.342;7.908;2023-09-19T14:56:37;1.42;;;0.80;;
48835;SDS011;62581;47.342;7.908;2023-09-19T14:59:04;2.03;;;0.70;;
48835;SDS011;62581;47.342;7.908;2023-09-19T15:01:32;2.53;;;0.80;;
48835;SDS011;62581;47.342;7.908;2023-09-19T15:03:59;1.75;;;0.82;;
48835;SDS011;62581;47.342;7.908;2023-09-19T15:06:28;1.08;;;0.55;;
48835;SDS011;62581;47.342;7.908;2023-09-19T15:08:55;1.42;;;0.70;;
48835;SDS011;62581;47.342;7.908;2023-09-19T15:13:50;1.88;;;0.70;;
48835;SDS011;62581;47.342;7.908;2023-09-19T15:16:18;1.55;;;0.60;;
48835;SDS011;62581;47.342;7.908;2023-09-19T15:18:46;2.60;;;0.82;;
48835;SDS011;62581;47.342;7.908;2023-09-19T15:21:14;0.68;;;0.50;;
48835;SDS011;62581;47.342;7.908;2023-09-19T15:23:43;1.13;;;0.68;;
48835;SDS011;62581;47.342;7.908;2023-09-19T15:26:13;1.80;;;1.08;;
48835;SDS011;62581;47.342;7.908;2023-09-19T15:28:45;2.72;;;0.77;;
48835;SDS011;62581;47.342;7.908;2023-09-19T15:31:13;2.38;;;0.95;;
48835;SDS011;62581;47.342;7.908;2023-09-19T15:36:08;0.82;;;0.70;;
48835;SDS011;62581;47.342;7.908;2023-09-19T15:38:57;3.75;;;0.93;;
48835;SDS011;62581;47.342;7.908;2023-09-19T15:41:26;2.22;;;0.60;;
48835;SDS011;62581;47.342;7.908;2023-09-19T15:43:53;1.20;;;0.90;;
48835;SDS011;62581;47.342;7.908;2023-09-19T15:46:20;4.32;;;1.02;;
48835;SDS011;62581;47.342;7.908;2023-09-19T15:48:48;4.15;;;0.90;;
48835;SDS011;62581;47.342;7.908;2023-09-19T15:51:15;2.28;;;0.80;;
48835;SDS011;62581;47.342;7.908;2023-09-19T15:53:43;2.03;;;0.95;;
48835;SDS011;62581;47.342;7.908;2023-09-19T15:56:13;1.98;;;0.60;;
48835;SDS011;62581;47.342;7.908;2023-09-19T15:58:42;2.05;;;1.00;;